Etretat — FIDP — position and weather

sailwx.info

Track history (hours):
 
Tides and Currents Weather Stations Pressure Air Temp Water Temp Dewpoint Dewpoint Depression Visibility Wind Speed Wind Dir Waves Ship Positions

Etretat

Last reported at 2014-Oct-25 02:21 UTC. Time now 2014-Oct-25 03:35 UTC.
Position N 49°50' W 000°15'.

Length 187 m; draft 6.1 m.

Type: Ship. MMSI: 228022900.

Date/timePositionNaut miles runAvg speedWind from/ knotsBaromVisibWave heightAir tempDewpointWater temp
2014-Oct-25 02:21N 49°50' W 000°15'1822.2
2014-Oct-25 01:33N 49°34' W 000°02'8 7.7
2014-Oct-25 00:34N 49°29' E 000°07'0 0.0
2014-Oct-24 23:33N 49°29' E 000°07'0 0.0
2014-Oct-24 22:34N 49°29' E 000°07'0 0.0
2014-Oct-24 21:33N 49°29' E 000°07'0 0.0
2014-Oct-24 20:33N 49°29' E 000°07'0 0.0
2014-Oct-24 19:33N 49°29' E 000°07'0 0.0
2014-Oct-24 18:33N 49°29' E 000°07'0 0.0
2014-Oct-24 17:33N 49°29' E 000°07'2 1.9
2014-Oct-24 16:34N 49°29' E 000°04'2120.9
2014-Oct-24 15:33N 49°46' W 000°15'4821.1
2014-Oct-24 13:16N 50°30' W 000°48'1420.2
2014-Oct-24 12:33N 50°42' W 000°59'8 7.7
2014-Oct-24 11:34N 50°49' W 001°06'0 0.0
2014-Oct-24 10:33N 50°49' W 001°06'0 0.0
2014-Oct-24 09:33N 50°49' W 001°06'0 0.0
2014-Oct-24 08:33N 50°49' W 001°06'0 0.0
2014-Oct-24 07:33N 50°49' W 001°06'1 1.1
2014-Oct-24 06:34N 50°48' W 001°07'1313.2
2014-Oct-24 05:33N 50°37' W 000°54'1010.0
2014-Oct-24 04:33N 50°28' W 000°47'39 9.8
2014-Oct-24 00:34N 49°51' W 000°27'1010.1
2014-Oct-23 23:33N 49°41' W 000°22'1010.0
2014-Oct-23 22:33N 49°32' W 000°18'8 8.1
2014-Oct-23 21:33N 49°28' W 000°06'9 8.5
2014-Oct-23 20:33N 49°29' E 000°07'0 0.0
2014-Oct-23 19:33N 49°29' E 000°07'0 0.0
2014-Oct-23 18:33N 49°29' E 000°07'0 0.0
2014-Oct-23 17:33N 49°29' E 000°07'0 0.0
2014-Oct-23 16:33N 49°29' E 000°07'1212.3
2014-Oct-23 15:33N 49°38' W 000°06'5819.2
2014-Oct-23 12:33N 50°29' W 000°48'1717.6
2014-Oct-23 11:33N 50°44' W 001°03'5 5.1
2014-Oct-23 10:33N 50°49' W 001°06'0 0.0
2014-Oct-23 09:33N 50°49' W 001°06'0 0.0
2014-Oct-23 08:33N 50°49' W 001°06'0 0.0
2014-Oct-23 07:33N 50°49' W 001°06'1 0.8
2014-Oct-23 06:33N 50°48' W 001°07'1413.5
2014-Oct-23 05:33N 50°37' W 000°54'5511.0
2014-Oct-23 00:34N 49°46' W 000°24'1110.9
2014-Oct-22 23:34N 49°35' W 000°19'9 8.8
2014-Oct-22 22:33N 49°27' W 000°13'2 2.5
2014-Oct-22 21:33N 49°27' W 000°09'1010.3
2014-Oct-22 20:33N 49°29' E 000°07'0 0.0
2014-Oct-22 19:33N 49°29' E 000°07'0 0.0
2014-Oct-22 18:33N 49°29' E 000°07'0 0.0
2014-Oct-22 17:33N 49°29' E 000°07'2 1.8
2014-Oct-22 16:33N 49°29' E 000°04'6519.4
2014-Oct-22 13:13N 50°26' W 000°44'1219.1
2014-Oct-22 12:33N 50°37' W 000°54'1312.7
2014-Oct-22 11:33N 50°47' W 001°06'1 1.5
2014-Oct-22 10:33N 50°49' W 001°06'0 0.0
2014-Oct-22 09:33N 50°49' W 001°06'0 0.0
2014-Oct-22 08:33N 50°49' W 001°06'0 0.0
2014-Oct-22 07:33N 50°49' W 001°06'1 0.8
2014-Oct-22 06:33N 50°48' W 001°07'1313.2
2014-Oct-22 05:33N 50°36' W 000°58'6214.2
2014-Oct-22 01:10N 49°34' W 000°48'915.2
2014-Oct-22 00:33N 49°33' W 000°34'1515.1
2014-Oct-21 23:33N 49°31' W 000°11'1211.5
2014-Oct-21 22:33N 49°29' E 000°07'0 0.0
2014-Oct-21 21:33N 49°29' E 000°07'0 0.0
2014-Oct-21 20:33N 49°29' E 000°07'0 0.0
2014-Oct-21 19:34N 49°29' E 000°07'0 0.0
2014-Oct-21 18:34N 49°29' E 000°07'0 0.0
2014-Oct-21 17:34N 49°29' E 000°07'0 0.4
2014-Oct-21 16:34N 49°29' E 000°07'1414.0
2014-Oct-21 15:34N 49°40' W 000°06'5819.1
2014-Oct-21 12:31N 50°31' W 000°49'1718.0
2014-Oct-21 11:33N 50°45' W 001°05'4 3.9
2014-Oct-21 10:33N 50°49' W 001°06'0 0.0
2014-Oct-21 09:33N 50°49' W 001°06'0 0.0
2014-Oct-21 08:33N 50°49' W 001°06'0 0.1
2014-Oct-21 07:33N 50°49' W 001°06'0 0.0
2014-Oct-21 06:33N 50°49' W 001°06'0 0.0
2014-Oct-21 05:33N 50°49' W 001°06'0 0.0
2014-Oct-21 04:34N 50°49' W 001°06'0 0.0
2014-Oct-21 03:34N 50°49' W 001°06'0 0.0
2014-Oct-21 02:33N 50°49' W 001°06'0 0.0
2014-Oct-21 01:33N 50°49' W 001°06'0 0.0
2014-Oct-21 00:34N 50°49' W 001°06'0 0.0
2014-Oct-20 23:33N 50°49' W 001°06'0 0.0
2014-Oct-20 22:33N 50°49' W 001°06'0 0.0
2014-Oct-20 21:33N 50°49' W 001°06'0 0.0
2014-Oct-20 20:33N 50°49' W 001°06'0 0.0
2014-Oct-20 19:33N 50°49' W 001°06'0 0.1
2014-Oct-20 18:33N 50°49' W 001°06'0 0.0
2014-Oct-20 17:33N 50°49' W 001°06'1 0.8
2014-Oct-20 16:33N 50°48' W 001°07'1312.9
2014-Oct-20 15:34N 50°35' W 001°05'17919.9
2014-Oct-20 06:33N 48°43' W 004°41'2019.6
2014-Oct-20 05:34N 48°28' W 004°59'1716.9
2014-Oct-20 04:34N 48°12' W 005°08'2219.8
2014-Oct-20 03:26N 47°50' W 005°07'20920.6
2014-Oct-19 17:16N 44°26' W 004°02'3620.7
2014-Oct-19 15:31N 43°50' W 003°51'24512.9
2014-Oct-18 20:33N 47°50' W 005°06'2119.5
2014-Oct-18 19:29N 48°10' W 005°10'1718.6
2014-Oct-18 18:33N 48°27' W 005°02'2319.5
2014-Oct-18 17:21N 48°44' W 004°38'13319.2
2014-Oct-18 10:25N 50°12' W 002°04'1920.6
2014-Oct-18 09:31N 50°22' W 001°40'2020.4
2014-Oct-18 08:33N 50°33' W 001°14'1414.4
2014-Oct-18 07:33N 50°46' W 001°06'2 2.3
2014-Oct-18 06:33N 50°49' W 001°06'0 0.0
2014-Oct-18 05:34N 50°49' W 001°06'0 0.0
2014-Oct-18 04:33N 50°49' W 001°06'7 7.5
2014-Oct-18 03:34N 50°43' W 000°59'1313.0
2014-Oct-18 02:33N 50°32' W 000°46'4711.2
2014-Oct-17 22:20N 49°49' W 000°15'911.3
2014-Oct-17 21:33N 49°42' W 000°09'1111.2
2014-Oct-17 20:34N 49°32' W 000°00'5 5.5
2014-Oct-17 19:34N 49°29' E 000°07'0 0.0
2014-Oct-17 18:34N 49°29' E 000°07'0 0.0
2014-Oct-17 17:34N 49°29' E 000°07'0 0.0
2014-Oct-17 16:34N 49°29' E 000°07'9 9.0
2014-Oct-17 15:33N 49°35' W 000°04'6119.9
2014-Oct-17 12:29N 50°30' W 000°47'1819.5
2014-Oct-17 11:33N 50°44' W 001°04'5 4.8
2014-Oct-17 10:33N 50°49' W 001°06'0 0.0
2014-Oct-17 09:34N 50°49' W 001°06'0 0.0
2014-Oct-17 08:33N 50°49' W 001°06'0 0.0
2014-Oct-17 07:33N 50°49' W 001°06'1 0.6
2014-Oct-17 06:33N 50°49' W 001°07'1413.7
2014-Oct-17 05:33N 50°37' W 000°55'6111.9
2014-Oct-17 00:25N 49°43' W 000°09'8 9.8
2014-Oct-16 23:34N 49°36' W 000°03'1 0.8
2014-Oct-16 22:33N 49°35' W 000°04'7 7.4
2014-Oct-16 21:34N 49°30' E 000°03'3 2.5
2014-Oct-16 20:33N 49°29' E 000°07'0 0.0
2014-Oct-16 19:33N 49°29' E 000°07'0 0.0
2014-Oct-16 18:33N 49°29' E 000°07'0 0.0
2014-Oct-16 17:33N 49°29' E 000°07'8 8.4
2014-Oct-16 16:33N 49°32' W 000°05'1212.1
2014-Oct-16 15:33N 49°43' W 000°13'5416.7
2014-Oct-16 12:20N 50°32' W 000°50'1620.4
2014-Oct-16 11:34N 50°44' W 001°05'4 4.5
2014-Oct-16 10:33N 50°49' W 001°06'0 0.0
2014-Oct-16 09:33N 50°49' W 001°06'0 0.0
2014-Oct-16 08:33N 50°49' W 001°06'0 0.0
2014-Oct-16 07:33N 50°49' W 001°06'2 1.8
2014-Oct-16 06:33N 50°47' W 001°06'1414.4
2014-Oct-16 05:34N 50°35' W 000°53'6112.2
2014-Oct-16 00:33N 49°41' W 000°08'1 0.9
2014-Oct-15 23:33N 49°41' W 000°09'1 1.1
2014-Oct-15 22:30N 49°41' W 000°08'3 3.6
2014-Oct-15 21:34N 49°38' W 000°06'1110.6
2014-Oct-15 20:33N 49°30' E 000°03'2 2.1
2014-Oct-15 19:33N 49°29' E 000°07'0 0.0
2014-Oct-15 18:34N 49°29' E 000°07'0 0.0
2014-Oct-15 17:33N 49°29' E 000°07'0 0.0
2014-Oct-15 16:34N 49°29' E 000°07'1414.2
2014-Oct-15 15:33N 49°41' W 000°06'6822.6
2014-Oct-15 12:34N 50°40' W 000°56'1010.4
2014-Oct-15 11:33N 50°49' W 001°06'0 0.0
2014-Oct-15 10:33N 50°49' W 001°06'0 0.0
2014-Oct-15 09:33N 50°49' W 001°06'0 0.0
2014-Oct-15 08:33N 50°49' W 001°06'0 0.0
2014-Oct-15 07:33N 50°49' W 001°06'1 1.2
2014-Oct-15 06:33N 50°48' W 001°07'1212.3
2014-Oct-15 05:33N 50°38' W 000°55'  
Track history (hours):
 
Tides and Currents Weather Stations Pressure Air Temp Water Temp Dewpoint Dewpoint Depression Visibility Wind Speed Wind Dir Waves Ship Positions

Etretat

Last reported at 2014-Oct-25 02:21 UTC. Time now 2014-Oct-25 03:35 UTC.
Position N 49°50' W 000°15'.

Length 187 m; draft 6.1 m.

Type: Ship. MMSI: 228022900.

Date/timePositionNaut miles runAvg speedWind from/ knotsBaromVisibWave heightAir tempDewpointWater temp
2014-Oct-25 02:21N 49°50' W 000°15'1822.2
2014-Oct-25 01:33N 49°34' W 000°02'8 7.7
2014-Oct-25 00:34N 49°29' E 000°07'0 0.0
2014-Oct-24 23:33N 49°29' E 000°07'0 0.0
2014-Oct-24 22:34N 49°29' E 000°07'0 0.0
2014-Oct-24 21:33N 49°29' E 000°07'0 0.0
2014-Oct-24 20:33N 49°29' E 000°07'0 0.0
2014-Oct-24 19:33N 49°29' E 000°07'0 0.0
2014-Oct-24 18:33N 49°29' E 000°07'0 0.0
2014-Oct-24 17:33N 49°29' E 000°07'2 1.9
2014-Oct-24 16:34N 49°29' E 000°04'2120.9
2014-Oct-24 15:33N 49°46' W 000°15'4821.1
2014-Oct-24 13:16N 50°30' W 000°48'1420.2
2014-Oct-24 12:33N 50°42' W 000°59'8 7.7
2014-Oct-24 11:34N 50°49' W 001°06'0 0.0
2014-Oct-24 10:33N 50°49' W 001°06'0 0.0
2014-Oct-24 09:33N 50°49' W 001°06'0 0.0
2014-Oct-24 08:33N 50°49' W 001°06'0 0.0
2014-Oct-24 07:33N 50°49' W 001°06'1 1.1
2014-Oct-24 06:34N 50°48' W 001°07'1313.2
2014-Oct-24 05:33N 50°37' W 000°54'1010.0
2014-Oct-24 04:33N 50°28' W 000°47'39 9.8
2014-Oct-24 00:34N 49°51' W 000°27'1010.1
2014-Oct-23 23:33N 49°41' W 000°22'1010.0
2014-Oct-23 22:33N 49°32' W 000°18'8 8.1
2014-Oct-23 21:33N 49°28' W 000°06'9 8.5
2014-Oct-23 20:33N 49°29' E 000°07'0 0.0
2014-Oct-23 19:33N 49°29' E 000°07'0 0.0
2014-Oct-23 18:33N 49°29' E 000°07'0 0.0
2014-Oct-23 17:33N 49°29' E 000°07'0 0.0
2014-Oct-23 16:33N 49°29' E 000°07'1212.3
2014-Oct-23 15:33N 49°38' W 000°06'5819.2
2014-Oct-23 12:33N 50°29' W 000°48'1717.6
2014-Oct-23 11:33N 50°44' W 001°03'5 5.1
2014-Oct-23 10:33N 50°49' W 001°06'0 0.0
2014-Oct-23 09:33N 50°49' W 001°06'0 0.0
2014-Oct-23 08:33N 50°49' W 001°06'0 0.0
2014-Oct-23 07:33N 50°49' W 001°06'1 0.8
2014-Oct-23 06:33N 50°48' W 001°07'1413.5
2014-Oct-23 05:33N 50°37' W 000°54'5511.0
2014-Oct-23 00:34N 49°46' W 000°24'1110.9
2014-Oct-22 23:34N 49°35' W 000°19'9 8.8
2014-Oct-22 22:33N 49°27' W 000°13'2 2.5
2014-Oct-22 21:33N 49°27' W 000°09'1010.3
2014-Oct-22 20:33N 49°29' E 000°07'0 0.0
2014-Oct-22 19:33N 49°29' E 000°07'0 0.0
2014-Oct-22 18:33N 49°29' E 000°07'0 0.0
2014-Oct-22 17:33N 49°29' E 000°07'2 1.8
2014-Oct-22 16:33N 49°29' E 000°04'6519.4
2014-Oct-22 13:13N 50°26' W 000°44'1219.1
2014-Oct-22 12:33N 50°37' W 000°54'1312.7
2014-Oct-22 11:33N 50°47' W 001°06'1 1.5
2014-Oct-22 10:33N 50°49' W 001°06'0 0.0
2014-Oct-22 09:33N 50°49' W 001°06'0 0.0
2014-Oct-22 08:33N 50°49' W 001°06'0 0.0
2014-Oct-22 07:33N 50°49' W 001°06'1 0.8
2014-Oct-22 06:33N 50°48' W 001°07'1313.2
2014-Oct-22 05:33N 50°36' W 000°58'6214.2
2014-Oct-22 01:10N 49°34' W 000°48'915.2
2014-Oct-22 00:33N 49°33' W 000°34'1515.1
2014-Oct-21 23:33N 49°31' W 000°11'1211.5
2014-Oct-21 22:33N 49°29' E 000°07'0 0.0
2014-Oct-21 21:33N 49°29' E 000°07'0 0.0
2014-Oct-21 20:33N 49°29' E 000°07'0 0.0
2014-Oct-21 19:34N 49°29' E 000°07'0 0.0
2014-Oct-21 18:34N 49°29' E 000°07'0 0.0
2014-Oct-21 17:34N 49°29' E 000°07'0 0.4
2014-Oct-21 16:34N 49°29' E 000°07'1414.0
2014-Oct-21 15:34N 49°40' W 000°06'5819.1
2014-Oct-21 12:31N 50°31' W 000°49'1718.0
2014-Oct-21 11:33N 50°45' W 001°05'4 3.9
2014-Oct-21 10:33N 50°49' W 001°06'0 0.0
2014-Oct-21 09:33N 50°49' W 001°06'0 0.0
2014-Oct-21 08:33N 50°49' W 001°06'0 0.1
2014-Oct-21 07:33N 50°49' W 001°06'0 0.0
2014-Oct-21 06:33N 50°49' W 001°06'0 0.0
2014-Oct-21 05:33N 50°49' W 001°06'0 0.0
2014-Oct-21 04:34N 50°49' W 001°06'0 0.0
2014-Oct-21 03:34N 50°49' W 001°06'0 0.0
2014-Oct-21 02:33N 50°49' W 001°06'0 0.0
2014-Oct-21 01:33N 50°49' W 001°06'0 0.0
2014-Oct-21 00:34N 50°49' W 001°06'0 0.0
2014-Oct-20 23:33N 50°49' W 001°06'0 0.0
2014-Oct-20 22:33N 50°49' W 001°06'0 0.0
2014-Oct-20 21:33N 50°49' W 001°06'0 0.0
2014-Oct-20 20:33N 50°49' W 001°06'0 0.0
2014-Oct-20 19:33N 50°49' W 001°06'0 0.1
2014-Oct-20 18:33N 50°49' W 001°06'0 0.0
2014-Oct-20 17:33N 50°49' W 001°06'1 0.8
2014-Oct-20 16:33N 50°48' W 001°07'1312.9
2014-Oct-20 15:34N 50°35' W 001°05'17919.9
2014-Oct-20 06:33N 48°43' W 004°41'2019.6
2014-Oct-20 05:34N 48°28' W 004°59'1716.9
2014-Oct-20 04:34N 48°12' W 005°08'2219.8
2014-Oct-20 03:26N 47°50' W 005°07'20920.6
2014-Oct-19 17:16N 44°26' W 004°02'3620.7
2014-Oct-19 15:31N 43°50' W 003°51'24512.9
2014-Oct-18 20:33N 47°50' W 005°06'2119.5
2014-Oct-18 19:29N 48°10' W 005°10'1718.6
2014-Oct-18 18:33N 48°27' W 005°02'2319.5
2014-Oct-18 17:21N 48°44' W 004°38'13319.2
2014-Oct-18 10:25N 50°12' W 002°04'1920.6
2014-Oct-18 09:31N 50°22' W 001°40'2020.4
2014-Oct-18 08:33N 50°33' W 001°14'1414.4
2014-Oct-18 07:33N 50°46' W 001°06'2 2.3
2014-Oct-18 06:33N 50°49' W 001°06'0 0.0
2014-Oct-18 05:34N 50°49' W 001°06'0 0.0
2014-Oct-18 04:33N 50°49' W 001°06'7 7.5
2014-Oct-18 03:34N 50°43' W 000°59'1313.0
2014-Oct-18 02:33N 50°32' W 000°46'4711.2
2014-Oct-17 22:20N 49°49' W 000°15'911.3
2014-Oct-17 21:33N 49°42' W 000°09'1111.2
2014-Oct-17 20:34N 49°32' W 000°00'5 5.5
2014-Oct-17 19:34N 49°29' E 000°07'0 0.0
2014-Oct-17 18:34N 49°29' E 000°07'0 0.0
2014-Oct-17 17:34N 49°29' E 000°07'0 0.0
2014-Oct-17 16:34N 49°29' E 000°07'9 9.0
2014-Oct-17 15:33N 49°35' W 000°04'6119.9
2014-Oct-17 12:29N 50°30' W 000°47'1819.5
2014-Oct-17 11:33N 50°44' W 001°04'5 4.8
2014-Oct-17 10:33N 50°49' W 001°06'0 0.0
2014-Oct-17 09:34N 50°49' W 001°06'0 0.0
2014-Oct-17 08:33N 50°49' W 001°06'0 0.0
2014-Oct-17 07:33N 50°49' W 001°06'1 0.6
2014-Oct-17 06:33N 50°49' W 001°07'1413.7
2014-Oct-17 05:33N 50°37' W 000°55'6111.9
2014-Oct-17 00:25N 49°43' W 000°09'8 9.8
2014-Oct-16 23:34N 49°36' W 000°03'1 0.8
2014-Oct-16 22:33N 49°35' W 000°04'7 7.4
2014-Oct-16 21:34N 49°30' E 000°03'3 2.5
2014-Oct-16 20:33N 49°29' E 000°07'0 0.0
2014-Oct-16 19:33N 49°29' E 000°07'0 0.0
2014-Oct-16 18:33N 49°29' E 000°07'0 0.0
2014-Oct-16 17:33N 49°29' E 000°07'8 8.4
2014-Oct-16 16:33N 49°32' W 000°05'1212.1
2014-Oct-16 15:33N 49°43' W 000°13'5416.7
2014-Oct-16 12:20N 50°32' W 000°50'1620.4
2014-Oct-16 11:34N 50°44' W 001°05'4 4.5
2014-Oct-16 10:33N 50°49' W 001°06'0 0.0
2014-Oct-16 09:33N 50°49' W 001°06'0 0.0
2014-Oct-16 08:33N 50°49' W 001°06'0 0.0
2014-Oct-16 07:33N 50°49' W 001°06'2 1.8
2014-Oct-16 06:33N 50°47' W 001°06'1414.4
2014-Oct-16 05:34N 50°35' W 000°53'6112.2
2014-Oct-16 00:33N 49°41' W 000°08'1 0.9
2014-Oct-15 23:33N 49°41' W 000°09'1 1.1
2014-Oct-15 22:30N 49°41' W 000°08'3 3.6
2014-Oct-15 21:34N 49°38' W 000°06'1110.6
2014-Oct-15 20:33N 49°30' E 000°03'2 2.1
2014-Oct-15 19:33N 49°29' E 000°07'0 0.0
2014-Oct-15 18:34N 49°29' E 000°07'0 0.0
2014-Oct-15 17:33N 49°29' E 000°07'0 0.0
2014-Oct-15 16:34N 49°29' E 000°07'1414.2
2014-Oct-15 15:33N 49°41' W 000°06'6822.6
2014-Oct-15 12:34N 50°40' W 000°56'1010.4
2014-Oct-15 11:33N 50°49' W 001°06'0 0.0
2014-Oct-15 10:33N 50°49' W 001°06'0 0.0
2014-Oct-15 09:33N 50°49' W 001°06'0 0.0
2014-Oct-15 08:33N 50°49' W 001°06'0 0.0
2014-Oct-15 07:33N 50°49' W 001°06'1 1.2
2014-Oct-15 06:33N 50°48' W 001°07'1212.3
2014-Oct-15 05:33N 50°38' W 000°55'  

Dump ship's entire track history